Time;durP1;ratioP1;P1;durP2;ratioP2;P2;SDS_P1;SDS_P2;PMS_P1;PMS_P2;Temp;Humidity;BMP_temperature;BMP_pressure;BME280_temperature;BME280_humidity;BME280_pressure;Samples;Min_cycle;Max_cycle;Signal;HPM_P1;HPM_P2
2023/06/10 00:02:34;;;;;;;10.57;8.52;;;;;;;;;;10068275;28;20462;-68
2023/06/10 00:07:30;;;;;;;12.77;9.00;;;;;;;;;;10061458;28;20087;-70
2023/06/10 00:12:28;;;;;;;11.63;8.65;;;;;;;;;;10063150;28;20091;-70
2023/06/10 00:17:25;;;;;;;10.82;8.40;;;;;;;;;;10060352;28;20058;-69
2023/06/10 00:22:22;;;;;;;12.13;8.20;;;;;;;;;;10067037;28;20390;-68
2023/06/10 00:27:18;;;;;;;10.15;8.85;;;;;;;;;;10066656;28;20066;-69
2023/06/10 00:32:14;;;;;;;9.82;7.32;;;;;;;;;;10068110;28;20043;-68
2023/06/10 00:37:11;;;;;;;9.80;8.15;;;;;;;;;;10068041;28;20043;-70
2023/06/10 00:42:07;;;;;;;10.65;8.82;;;;;;;;;;10073157;28;20632;-69
2023/06/10 00:47:05;;;;;;;10.98;8.43;;;;;;;;;;10068808;28;20055;-68
2023/06/10 00:52:03;;;;;;;10.50;8.05;;;;;;;;;;10067120;28;20102;-71
2023/06/10 00:57:00;;;;;;;8.60;7.65;;;;;;;;;;10067486;28;20059;-70
2023/06/10 01:01:57;;;;;;;8.75;7.63;;;;;;;;;;10068266;28;20752;-71
2023/06/10 01:07:14;;;;;;;10.43;7.72;;;;;;;;;;10072442;28;20071;-71
2023/06/10 01:12:32;;;;;;;14.02;8.02;;;;;;;;;;10054944;28;20052;-72
2023/06/10 01:17:29;;;;;;;11.05;7.80;;;;;;;;;;10050329;28;20050;-70
2023/06/10 01:22:32;;;;;;;11.00;7.22;;;;;;;;;;10070029;28;20039;-70
2023/06/10 01:27:32;;;;;;;11.53;7.60;;;;;;;;;;10048062;28;20042;-69
2023/06/10 01:32:40;;;;;;;13.65;7.80;;;;;;;;;;10064967;28;21237;-70
2023/06/10 01:37:38;;;;;;;13.38;8.10;;;;;;;;;;10063779;28;20126;-69
2023/06/10 01:42:35;;;;;;;10.45;7.32;;;;;;;;;;10067657;28;20047;-69
2023/06/10 01:47:31;;;;;;;9.75;7.88;;;;;;;;;;10075296;28;20055;-69
2023/06/10 01:52:27;;;;;;;8.10;7.30;;;;;;;;;;10060804;28;20078;-69
2023/06/10 01:57:24;;;;;;;9.35;7.90;;;;;;;;;;10067149;28;20521;-70
2023/06/10 02:02:21;;;;;;;11.27;7.97;;;;;;;;;;10087844;28;20047;-69
2023/06/10 02:07:18;;;;;;;7.95;7.15;;;;;;;;;;10069214;28;20383;-69
2023/06/10 02:12:14;;;;;;;8.13;6.53;;;;;;;;;;10068788;28;20043;-69
2023/06/10 02:17:14;;;;;;;8.52;6.65;;;;;;;;;;10067623;28;20125;-69
2023/06/10 02:22:10;;;;;;;8.43;6.15;;;;;;;;;;10068023;28;20039;-69
2023/06/10 02:27:07;;;;;;;8.50;6.72;;;;;;;;;;10069965;28;20395;-68
2023/06/10 02:32:03;;;;;;;8.10;6.90;;;;;;;;;;10058856;28;20046;-69
2023/06/10 02:37:00;;;;;;;7.50;6.60;;;;;;;;;;10062599;28;20446;-68
2023/06/10 02:41:56;;;;;;;7.78;6.60;;;;;;;;;;10062552;28;20098;-69
2023/06/10 02:46:53;;;;;;;8.25;7.30;;;;;;;;;;10070154;28;20079;-66
2023/06/10 02:51:53;;;;;;;9.52;6.90;;;;;;;;;;10061332;28;20043;-67
2023/06/10 02:56:51;;;;;;;11.43;7.32;;;;;;;;;;10075566;28;20133;-66
2023/06/10 03:01:47;;;;;;;10.52;6.90;;;;;;;;;;10096871;28;20655;-67
2023/06/10 03:06:45;;;;;;;7.55;6.30;;;;;;;;;;10098551;28;20065;-67
2023/06/10 03:11:41;;;;;;;9.63;7.18;;;;;;;;;;10088534;28;20477;-67
2023/06/10 03:16:42;;;;;;;8.90;7.30;;;;;;;;;;10088577;28;20046;-67
2023/06/10 03:21:41;;;;;;;11.23;6.70;;;;;;;;;;10092600;28;20035;-66
2023/06/10 03:26:37;;;;;;;12.10;7.55;;;;;;;;;;10100714;28;20079;-68
2023/06/10 03:31:35;;;;;;;7.55;6.63;;;;;;;;;;10090761;28;20055;-69
2023/06/10 03:36:31;;;;;;;9.10;6.45;;;;;;;;;;10089759;28;20078;-67
2023/06/10 03:41:28;;;;;;;10.20;7.40;;;;;;;;;;10100367;28;20078;-68
2023/06/10 03:46:24;;;;;;;8.20;6.63;;;;;;;;;;10100087;28;20063;-68
2023/06/10 03:51:21;;;;;;;9.68;6.60;;;;;;;;;;10092833;28;20077;-68
2023/06/10 03:56:17;;;;;;;9.13;7.07;;;;;;;;;;10094884;28;20048;-68
2023/06/10 04:01:14;;;;;;;10.23;7.55;;;;;;;;;;10099787;28;20078;-69
2023/06/10 04:06:10;;;;;;;8.13;7.10;;;;;;;;;;10109360;28;20047;-69
2023/06/10 04:11:06;;;;;;;8.30;6.60;;;;;;;;;;10103948;28;20496;-69
2023/06/10 04:16:03;;;;;;;7.47;6.43;;;;;;;;;;10105236;28;20042;-70
2023/06/10 04:20:59;;;;;;;8.93;6.70;;;;;;;;;;10106941;28;20059;-69
2023/06/10 04:25:56;;;;;;;9.30;7.80;;;;;;;;;;10092698;28;20054;-69
2023/06/10 04:30:53;;;;;;;10.27;7.20;;;;;;;;;;10103619;28;20536;-68
2023/06/10 04:35:50;;;;;;;9.90;7.18;;;;;;;;;;10102239;28;20069;-69
2023/06/10 04:40:46;;;;;;;9.93;6.85;;;;;;;;;;10094717;28;20067;-68
2023/06/10 04:45:45;;;;;;;8.70;6.88;;;;;;;;;;10098296;28;20050;-68
2023/06/10 04:50:42;;;;;;;7.95;6.53;;;;;;;;;;10096210;28;20096;-69
2023/06/10 04:55:38;;;;;;;10.18;6.78;;;;;;;;;;10100154;28;20066;-68
2023/06/10 05:00:34;;;;;;;8.13;6.53;;;;;;;;;;10099595;28;21446;-69
2023/06/10 05:05:31;;;;;;;7.75;6.95;;;;;;;;;;10098430;28;20145;-69
2023/06/10 05:10:31;;;;;;;8.80;7.25;;;;;;;;;;10100593;28;20054;-69
2023/06/10 05:15:27;;;;;;;7.65;6.80;;;;;;;;;;10101188;28;20047;-69
2023/06/10 05:20:28;;;;;;;10.85;7.40;;;;;;;;;;10098895;28;20054;-68
2023/06/10 05:25:26;;;;;;;7.05;6.05;;;;;;;;;;10097840;28;20051;-68
2023/06/10 05:30:24;;;;;;;12.23;6.63;;;;;;;;;;10099038;28;20563;-68
2023/06/10 05:35:20;;;;;;;9.27;6.38;;;;;;;;;;10086164;28;20047;-68
2023/06/10 05:40:16;;;;;;;11.55;6.80;;;;;;;;;;10089959;28;20786;-72
2023/06/10 05:45:13;;;;;;;8.50;6.18;;;;;;;;;;10090722;28;20046;-67
2023/06/10 05:50:10;;;;;;;11.57;7.10;;;;;;;;;;10095820;28;20086;-65
2023/06/10 05:55:06;;;;;;;9.10;5.85;;;;;;;;;;10088205;28;21273;-66
2023/06/10 06:00:04;;;;;;;9.48;7.85;;;;;;;;;;10092428;28;20043;-68
2023/06/10 06:05:00;;;;;;;12.65;6.75;;;;;;;;;;10095637;28;20504;-75
2023/06/10 06:09:57;;;;;;;10.30;7.28;;;;;;;;;;10097142;28;20576;-74
2023/06/10 06:14:53;;;;;;;10.27;6.90;;;;;;;;;;10090053;28;20043;-74
2023/06/10 06:19:50;;;;;;;10.85;6.93;;;;;;;;;;10091475;28;20489;-74
2023/06/10 06:24:46;;;;;;;8.63;7.82;;;;;;;;;;10094363;28;20396;-73
2023/06/10 06:29:43;;;;;;;8.48;6.97;;;;;;;;;;10094044;28;20526;-74
2023/06/10 06:34:39;;;;;;;9.45;6.68;;;;;;;;;;10098834;28;20050;-75
2023/06/10 06:39:36;;;;;;;8.63;6.47;;;;;;;;;;10092974;28;20055;-73
2023/06/10 06:44:32;;;;;;;10.07;6.82;;;;;;;;;;10093454;28;20535;-74
2023/06/10 06:49:29;;;;;;;8.65;6.30;;;;;;;;;;10092828;28;20075;-74
2023/06/10 06:54:25;;;;;;;7.57;5.82;;;;;;;;;;10094284;28;20094;-73
2023/06/10 06:59:21;;;;;;;12.60;6.30;;;;;;;;;;10090115;28;20082;-73
2023/06/10 07:04:19;;;;;;;7.97;6.05;;;;;;;;;;10102578;28;20113;-73
2023/06/10 07:09:16;;;;;;;9.35;6.07;;;;;;;;;;10084242;28;20035;-74
2023/06/10 07:14:13;;;;;;;6.97;6.07;;;;;;;;;;10089638;28;20066;-75
2023/06/10 07:19:09;;;;;;;9.95;6.38;;;;;;;;;;10097457;28;20077;-75
2023/06/10 07:24:05;;;;;;;8.98;6.68;;;;;;;;;;10100461;28;20127;-75
2023/06/10 07:29:02;;;;;;;10.68;6.57;;;;;;;;;;10099257;28;20497;-75
2023/06/10 07:33:59;;;;;;;9.63;6.13;;;;;;;;;;10069730;28;20036;-74
2023/06/10 07:38:55;;;;;;;9.48;6.50;;;;;;;;;;10087574;28;20059;-73
2023/06/10 07:43:55;;;;;;;8.75;6.07;;;;;;;;;;10072665;28;20055;-73
2023/06/10 07:48:53;;;;;;;9.55;6.20;;;;;;;;;;10048673;29;20043;-74
2023/06/10 07:53:52;;;;;;;8.38;6.45;;;;;;;;;;10055909;28;20692;-74
2023/06/10 07:58:49;;;;;;;11.10;6.38;;;;;;;;;;10063874;28;20101;-75
2023/06/10 08:03:45;;;;;;;7.95;5.85;;;;;;;;;;10076356;28;20109;-72
2023/06/10 08:08:43;;;;;;;9.38;5.90;;;;;;;;;;10073423;28;20460;-72
2023/06/10 08:13:40;;;;;;;11.60;6.75;;;;;;;;;;10072838;28;20122;-72
2023/06/10 08:18:36;;;;;;;10.70;6.20;;;;;;;;;;10083454;28;20098;-73
2023/06/10 08:23:33;;;;;;;9.25;6.55;;;;;;;;;;10101270;28;20534;-72
2023/06/10 08:28:29;;;;;;;6.60;5.90;;;;;;;;;;10102246;28;20138;-74
2023/06/10 08:33:25;;;;;;;8.95;6.10;;;;;;;;;;10102911;28;20520;-74
2023/06/10 08:38:22;;;;;;;8.73;6.60;;;;;;;;;;10089601;28;20048;-73
2023/06/10 08:43:39;;;;;;;11.23;6.53;;;;;;;;;;10099301;28;20043;-73
2023/06/10 08:48:39;;;;;;;7.18;5.90;;;;;;;;;;10083763;28;20055;-73
2023/06/10 08:53:36;;;;;;;8.98;6.15;;;;;;;;;;10094959;28;20042;-73
2023/06/10 08:58:35;;;;;;;13.23;8.20;;;;;;;;;;10096548;28;20414;-73
2023/06/10 09:03:31;;;;;;;8.35;5.10;;;;;;;;;;10102127;28;20039;-75
2023/06/10 09:08:28;;;;;;;7.93;5.93;;;;;;;;;;10095256;28;20043;-75
2023/06/10 09:13:26;;;;;;;9.88;7.60;;;;;;;;;;10087701;28;20039;-75
2023/06/10 09:18:22;;;;;;;7.07;5.60;;;;;;;;;;10078378;28;20046;-74
2023/06/10 09:23:19;;;;;;;10.32;6.05;;;;;;;;;;10104160;28;20046;-74
2023/06/10 09:28:15;;;;;;;6.40;5.50;;;;;;;;;;10103619;28;20046;-74
2023/06/10 09:33:13;;;;;;;8.55;6.25;;;;;;;;;;10094821;28;20039;-74
2023/06/10 09:38:09;;;;;;;12.05;6.25;;;;;;;;;;10102516;28;20101;-75
2023/06/10 09:43:06;;;;;;;8.60;6.10;;;;;;;;;;10105375;28;20042;-75
2023/06/10 09:48:02;;;;;;;7.13;5.32;;;;;;;;;;10107731;28;20414;-74
2023/06/10 09:53:00;;;;;;;9.13;5.95;;;;;;;;;;10082875;28;20082;-73
2023/06/10 09:57:59;;;;;;;6.68;5.72;;;;;;;;;;10098856;28;20477;-75
2023/06/10 10:02:55;;;;;;;8.15;5.85;;;;;;;;;;10101361;28;20047;-74
2023/06/10 10:07:52;;;;;;;11.63;6.55;;;;;;;;;;10077894;28;20069;-75
2023/06/10 10:12:52;;;;;;;8.95;5.93;;;;;;;;;;10097864;28;20043;-72
2023/06/10 10:17:52;;;;;;;10.52;5.82;;;;;;;;;;10101872;28;20559;-71
2023/06/10 10:22:49;;;;;;;9.90;6.07;;;;;;;;;;10096900;28;20051;-71
2023/06/10 10:27:56;;;;;;;13.18;9.90;;;;;;;;;;10104231;28;20090;-71
2023/06/10 10:32:58;;;;;;;11.48;6.68;;;;;;;;;;10066042;28;20124;-71
2023/06/10 10:37:55;;;;;;;11.55;7.20;;;;;;;;;;10085321;28;20070;-71
2023/06/10 10:42:52;;;;;;;8.82;6.72;;;;;;;;;;10099137;28;20051;-71
2023/06/10 10:47:53;;;;;;;11.10;6.70;;;;;;;;;;10092564;28;20085;-71
2023/06/10 10:52:54;;;;;;;8.57;6.93;;;;;;;;;;10083110;28;20039;-71
2023/06/10 10:57:56;;;;;;;9.07;6.53;;;;;;;;;;10096911;28;20502;-71
2023/06/10 11:02:57;;;;;;;9.68;7.10;;;;;;;;;;10098926;28;20138;-71
2023/06/10 11:07:57;;;;;;;7.93;6.32;;;;;;;;;;10082862;28;20051;-72
2023/06/10 11:12:54;;;;;;;12.38;9.93;;;;;;;;;;10079539;28;20055;-73
2023/06/10 11:18:06;;;;;;;12.18;8.70;;;;;;;;;;10091594;28;20429;-71
2023/06/10 11:23:02;;;;;;;8.00;7.20;;;;;;;;;;10097636;28;20042;-71
2023/06/10 11:27:59;;;;;;;11.65;7.20;;;;;;;;;;10088638;28;20122;-71
2023/06/10 11:32:55;;;;;;;11.15;7.00;;;;;;;;;;10098994;28;20054;-71
2023/06/10 11:37:55;;;;;;;10.10;6.90;;;;;;;;;;10086701;28;20097;-71
2023/06/10 11:42:52;;;;;;;7.20;6.20;;;;;;;;;;10100408;28;20047;-71
2023/06/10 11:47:55;;;;;;;7.18;6.38;;;;;;;;;;10098175;28;20047;-70
2023/06/10 11:52:52;;;;;;;8.35;6.43;;;;;;;;;;10095063;28;20110;-70
2023/06/10 11:57:48;;;;;;;8.98;6.50;;;;;;;;;;10100817;28;20496;-71
2023/06/10 12:02:45;;;;;;;6.97;5.97;;;;;;;;;;10093254;28;20117;-71
2023/06/10 12:07:41;;;;;;;10.50;7.32;;;;;;;;;;10096371;28;20509;-71
2023/06/10 12:12:38;;;;;;;7.68;6.15;;;;;;;;;;10091887;28;20507;-70
2023/06/10 12:17:36;;;;;;;9.25;6.70;;;;;;;;;;10091327;28;20058;-71
2023/06/10 12:22:36;;;;;;;10.55;5.88;;;;;;;;;;10097525;28;20663;-70
2023/06/10 12:27:33;;;;;;;9.02;5.72;;;;;;;;;;10111663;28;20070;-70
2023/06/10 12:32:35;;;;;;;8.40;6.00;;;;;;;;;;10106367;28;20078;-70
2023/06/10 12:37:35;;;;;;;6.90;5.68;;;;;;;;;;10104115;28;20098;-70
2023/06/10 12:42:36;;;;;;;10.85;6.50;;;;;;;;;;10106846;28;20130;-71
2023/06/10 12:47:38;;;;;;;9.05;5.47;;;;;;;;;;10088297;28;20039;-70
2023/06/10 12:52:35;;;;;;;9.02;6.10;;;;;;;;;;10103625;28;20141;-70
2023/06/10 12:57:31;;;;;;;13.77;7.82;;;;;;;;;;10106819;28;20456;-69
2023/06/10 13:02:28;;;;;;;8.95;5.93;;;;;;;;;;10099177;28;20044;-70
2023/06/10 13:07:25;;;;;;;10.65;6.97;;;;;;;;;;10091321;28;20046;-72
2023/06/10 13:12:25;;;;;;;9.73;6.38;;;;;;;;;;10109817;28;20523;-70
2023/06/10 13:17:42;;;;;;;10.90;6.13;;;;;;;;;;10106261;28;20050;-70
2023/06/10 13:22:38;;;;;;;12.43;6.18;;;;;;;;;;10108287;28;20572;-70
2023/06/10 13:27:37;;;;;;;8.30;5.68;;;;;;;;;;10109923;28;20050;-69
2023/06/10 13:32:34;;;;;;;13.68;8.30;;;;;;;;;;10108786;28;20051;-70
2023/06/10 13:37:31;;;;;;;9.75;6.60;;;;;;;;;;10104766;28;20090;-70
2023/06/10 13:42:28;;;;;;;15.50;9.63;;;;;;;;;;10083379;28;20089;-70
2023/06/10 13:47:25;;;;;;;16.33;9.35;;;;;;;;;;10083763;28;20043;-70
2023/06/10 13:52:22;;;;;;;9.48;6.20;;;;;;;;;;10092278;28;20097;-70
2023/06/10 13:57:18;;;;;;;6.20;5.45;;;;;;;;;;10107906;28;20081;-69
2023/06/10 14:02:14;;;;;;;12.02;6.90;;;;;;;;;;10084347;28;20472;-69
2023/06/10 14:07:11;;;;;;;12.63;6.55;;;;;;;;;;10096713;28;20043;-70
2023/06/10 14:12:07;;;;;;;14.68;9.15;;;;;;;;;;10097846;28;20046;-69
2023/06/10 14:17:05;;;;;;;14.82;6.95;;;;;;;;;;10085544;28;20043;-70
2023/06/10 14:22:01;;;;;;;14.50;7.53;;;;;;;;;;10085171;28;20044;-70
2023/06/10 14:26:59;;;;;;;15.95;12.65;;;;;;;;;;10094803;28;20068;-70
2023/06/10 14:31:56;;;;;;;10.90;8.35;;;;;;;;;;10098951;28;20043;-70
2023/06/10 14:36:52;;;;;;;17.77;12.73;;;;;;;;;;10096186;28;20577;-70
2023/06/10 14:41:49;;;;;;;10.32;6.72;;;;;;;;;;10103088;28;20050;-70
2023/06/10 14:46:45;;;;;;;8.55;7.03;;;;;;;;;;10089174;28;20075;-71
2023/06/10 14:51:41;;;;;;;9.95;7.03;;;;;;;;;;10095290;28;20050;-70
2023/06/10 14:56:38;;;;;;;16.98;9.98;;;;;;;;;;10089618;28;20472;-70
2023/06/10 15:01:34;;;;;;;22.17;15.32;;;;;;;;;;10087220;28;20058;-70
2023/06/10 15:06:30;;;;;;;14.63;9.90;;;;;;;;;;10089533;28;20146;-69
2023/06/10 15:11:27;;;;;;;15.80;12.43;;;;;;;;;;10085942;28;20062;-70
2023/06/10 15:16:23;;;;;;;13.30;9.00;;;;;;;;;;10087290;28;20488;-70
2023/06/10 15:21:20;;;;;;;35.17;23.73;;;;;;;;;;10079240;28;20101;-70
2023/06/10 15:26:16;;;;;;;15.60;10.43;;;;;;;;;;10078690;28;20106;-70
2023/06/10 15:31:12;;;;;;;10.25;7.05;;;;;;;;;;10087988;28;20070;-70
2023/06/10 15:36:09;;;;;;;11.90;9.15;;;;;;;;;;10091640;28;20047;-70
2023/06/10 15:41:05;;;;;;;56.75;36.40;;;;;;;;;;10083912;28;20074;-70
2023/06/10 15:46:02;;;;;;;35.78;26.17;;;;;;;;;;10091940;28;20063;-70
2023/06/10 15:50:58;;;;;;;14.30;10.52;;;;;;;;;;10085914;28;20524;-70
2023/06/10 15:55:54;;;;;;;12.70;9.30;;;;;;;;;;10098168;28;20043;-70
2023/06/10 16:00:51;;;;;;;11.15;6.68;;;;;;;;;;10099514;28;20536;-70
2023/06/10 16:05:47;;;;;;;10.95;6.65;;;;;;;;;;10086334;28;20109;-70
2023/06/10 16:10:43;;;;;;;8.38;7.32;;;;;;;;;;10093384;28;20079;-70
2023/06/10 16:15:40;;;;;;;8.07;6.75;;;;;;;;;;10098049;28;20456;-70
2023/06/10 16:20:36;;;;;;;13.85;9.13;;;;;;;;;;10106462;28;20050;-70
2023/06/10 16:25:33;;;;;;;22.45;17.00;;;;;;;;;;10094529;28;20043;-70
2023/06/10 16:30:30;;;;;;;14.30;10.05;;;;;;;;;;10098360;28;20412;-70
2023/06/10 16:35:26;;;;;;;14.18;9.30;;;;;;;;;;10097291;28;20043;-69
2023/06/10 16:40:23;;;;;;;12.93;6.95;;;;;;;;;;10102093;28;20390;-69
2023/06/10 16:45:19;;;;;;;8.40;6.28;;;;;;;;;;10090340;28;20531;-69
2023/06/10 16:50:15;;;;;;;7.43;5.82;;;;;;;;;;10089386;28;20051;-69
2023/06/10 16:55:12;;;;;;;9.40;5.93;;;;;;;;;;10088604;28;20046;-70
2023/06/10 17:00:09;;;;;;;12.18;6.90;;;;;;;;;;10101145;28;20101;-70
2023/06/10 17:05:06;;;;;;;9.93;6.50;;;;;;;;;;10100071;28;20142;-70
2023/06/10 17:10:03;;;;;;;7.43;5.60;;;;;;;;;;10094113;28;20634;-70
2023/06/10 17:14:59;;;;;;;14.00;7.57;;;;;;;;;;10088878;28;20164;-69
2023/06/10 17:19:56;;;;;;;16.17;10.10;;;;;;;;;;10096979;28;20075;-70
2023/06/10 17:24:52;;;;;;;10.70;7.40;;;;;;;;;;10089600;28;20102;-69
2023/06/10 17:29:48;;;;;;;14.50;7.32;;;;;;;;;;10101140;28;20477;-69
2023/06/10 17:34:44;;;;;;;7.30;5.72;;;;;;;;;;10091011;28;20506;-69
2023/06/10 17:39:41;;;;;;;12.57;6.40;;;;;;;;;;10086335;28;20450;-69
2023/06/10 17:44:37;;;;;;;16.17;7.45;;;;;;;;;;10082795;28;20039;-69
2023/06/10 17:49:33;;;;;;;10.02;6.43;;;;;;;;;;10084851;28;20053;-69
2023/06/10 17:54:30;;;;;;;10.63;6.40;;;;;;;;;;10083172;28;20071;-70
2023/06/10 17:59:27;;;;;;;9.20;6.30;;;;;;;;;;10081701;28;20110;-69
2023/06/10 18:04:23;;;;;;;11.00;6.53;;;;;;;;;;10096261;28;20039;-70
2023/06/10 18:09:22;;;;;;;11.30;6.00;;;;;;;;;;10101385;28;20046;-70
2023/06/10 18:14:18;;;;;;;8.90;6.18;;;;;;;;;;10091735;28;20460;-70
2023/06/10 18:19:15;;;;;;;9.88;5.70;;;;;;;;;;10079709;28;20050;-70
2023/06/10 18:24:11;;;;;;;8.05;5.78;;;;;;;;;;10098708;28;20163;-70
2023/06/10 18:29:08;;;;;;;12.75;6.50;;;;;;;;;;10085008;28;20054;-70
2023/06/10 18:34:04;;;;;;;10.45;6.38;;;;;;;;;;10085918;28;20043;-70
2023/06/10 18:39:00;;;;;;;12.82;7.00;;;;;;;;;;10089168;28;20079;-70
2023/06/10 18:43:59;;;;;;;9.40;5.88;;;;;;;;;;10096809;28;20050;-70
2023/06/10 18:48:56;;;;;;;9.73;5.70;;;;;;;;;;10098261;28;20061;-69
2023/06/10 18:53:52;;;;;;;8.75;6.22;;;;;;;;;;10087959;28;20039;-70
2023/06/10 18:58:49;;;;;;;9.60;5.93;;;;;;;;;;10093511;28;20047;-69
2023/06/10 19:03:47;;;;;;;10.68;6.15;;;;;;;;;;10088002;28;20046;-69
2023/06/10 19:08:43;;;;;;;7.90;5.97;;;;;;;;;;10085781;28;20105;-70
2023/06/10 19:13:40;;;;;;;7.22;5.95;;;;;;;;;;10085674;28;20062;-69
2023/06/10 19:18:36;;;;;;;10.63;5.63;;;;;;;;;;10084361;28;20047;-69
2023/06/10 19:23:33;;;;;;;11.20;5.80;;;;;;;;;;10070549;28;20058;-70
2023/06/10 19:28:29;;;;;;;11.05;6.22;;;;;;;;;;10087417;28;20093;-70
2023/06/10 19:33:29;;;;;;;10.00;6.45;;;;;;;;;;10083171;28;20046;-70
2023/06/10 19:38:25;;;;;;;8.52;5.90;;;;;;;;;;10083619;28;20494;-70
2023/06/10 19:43:21;;;;;;;8.30;5.88;;;;;;;;;;10077635;28;20746;-70
2023/06/10 19:48:20;;;;;;;7.38;5.43;;;;;;;;;;10084801;28;20047;-70
2023/06/10 19:53:16;;;;;;;6.90;5.90;;;;;;;;;;10087830;28;20782;-69
2023/06/10 19:58:12;;;;;;;9.88;6.22;;;;;;;;;;10094153;28;20105;-69
2023/06/10 20:03:09;;;;;;;7.93;5.43;;;;;;;;;;10095100;28;20397;-69
2023/06/10 20:08:05;;;;;;;11.85;6.00;;;;;;;;;;10089500;28;20047;-69
2023/06/10 20:13:02;;;;;;;11.07;6.38;;;;;;;;;;10097150;28;20071;-70
2023/06/10 20:17:58;;;;;;;7.72;5.47;;;;;;;;;;10090313;28;20137;-69
2023/06/10 20:22:55;;;;;;;9.05;5.53;;;;;;;;;;10088535;28;20073;-69
2023/06/10 20:27:51;;;;;;;7.72;6.03;;;;;;;;;;10085819;28;20505;-69
2023/06/10 20:32:47;;;;;;;8.10;5.60;;;;;;;;;;10093268;28;20313;-69
2023/06/10 20:37:45;;;;;;;9.45;6.32;;;;;;;;;;10089279;28;20047;-70
2023/06/10 20:42:41;;;;;;;8.43;5.40;;;;;;;;;;10088504;28;20781;-69
2023/06/10 20:47:38;;;;;;;6.15;5.53;;;;;;;;;;10086746;28;20058;-70
2023/06/10 20:52:34;;;;;;;8.00;5.55;;;;;;;;;;10089374;28;20517;-70
2023/06/10 20:57:30;;;;;;;9.07;5.85;;;;;;;;;;10093555;28;20078;-70
2023/06/10 21:02:27;;;;;;;9.52;6.38;;;;;;;;;;10083732;28;20055;-70
2023/06/10 21:07:23;;;;;;;16.13;5.53;;;;;;;;;;10103391;28;20043;-70
2023/06/10 21:12:20;;;;;;;9.88;5.88;;;;;;;;;;10092650;28;20043;-70
2023/06/10 21:17:16;;;;;;;11.65;6.05;;;;;;;;;;10099941;28;20071;-70
2023/06/10 21:22:12;;;;;;;13.38;6.38;;;;;;;;;;10100633;28;20066;-70
2023/06/10 21:27:08;;;;;;;9.00;5.10;;;;;;;;;;10094052;28;20051;-70
2023/06/10 21:32:05;;;;;;;9.57;6.03;;;;;;;;;;10098469;28;20122;-69
2023/06/10 21:37:02;;;;;;;9.45;5.88;;;;;;;;;;10093385;28;20047;-70
2023/06/10 21:41:58;;;;;;;7.60;5.68;;;;;;;;;;10086311;28;20098;-70
2023/06/10 21:46:54;;;;;;;8.95;5.35;;;;;;;;;;10087867;28;20102;-70
2023/06/10 21:51:50;;;;;;;9.15;5.30;;;;;;;;;;10086297;28;20110;-70
2023/06/10 21:56:48;;;;;;;6.70;5.00;;;;;;;;;;10084361;28;20336;-70
2023/06/10 22:01:44;;;;;;;5.93;4.72;;;;;;;;;;10085016;28;20556;-70
2023/06/10 22:06:41;;;;;;;6.78;5.30;;;;;;;;;;10089354;28;20066;-70
2023/06/10 22:11:37;;;;;;;9.65;4.80;;;;;;;;;;10088094;28;20075;-70
2023/06/10 22:16:33;;;;;;;9.05;5.00;;;;;;;;;;10088831;28;20051;-70
2023/06/10 22:21:30;;;;;;;8.10;4.90;;;;;;;;;;10094378;28;20561;-69
2023/06/10 22:26:26;;;;;;;6.97;5.13;;;;;;;;;;10090887;28;20403;-70
2023/06/10 22:31:38;;;;;;;;;;;;;;;;;;10089496;28;20678;-70
2023/06/10 22:36:36;;;;;;;7.65;5.40;;;;;;;;;;10092396;28;19926;-70
2023/06/10 22:41:33;;;;;;;7.03;4.55;;;;;;;;;;10099667;28;20067;-70
2023/06/10 22:46:30;;;;;;;7.32;4.72;;;;;;;;;;10092798;28;20046;-70
2023/06/10 22:51:26;;;;;;;12.15;5.30;;;;;;;;;;10091170;28;20596;-70
2023/06/10 22:56:23;;;;;;;7.90;5.18;;;;;;;;;;10092818;28;20047;-70
2023/06/10 23:01:20;;;;;;;7.45;4.90;;;;;;;;;;10089351;28;20142;-69
2023/06/10 23:06:16;;;;;;;6.00;5.00;;;;;;;;;;10087233;28;20129;-69
2023/06/10 23:11:12;;;;;;;5.57;4.68;;;;;;;;;;10077972;28;20389;-69
2023/06/10 23:16:09;;;;;;;5.35;4.43;;;;;;;;;;10085619;28;20461;-64
2023/06/10 23:21:06;;;;;;;5.30;4.63;;;;;;;;;;10094863;28;20051;-65
2023/06/10 23:26:03;;;;;;;5.80;4.63;;;;;;;;;;10095774;28;20462;-66
2023/06/10 23:30:59;;;;;;;6.22;4.80;;;;;;;;;;10108103;28;20097;-66
2023/06/10 23:35:55;;;;;;;8.50;4.50;;;;;;;;;;10093597;28;20094;-66
2023/06/10 23:40:52;;;;;;;5.93;4.43;;;;;;;;;;10093310;28;20046;-66
2023/06/10 23:45:48;;;;;;;6.53;4.65;;;;;;;;;;10093181;28;20058;-66
2023/06/10 23:50:44;;;;;;;6.38;4.85;;;;;;;;;;10106126;28;20062;-66
2023/06/10 23:55:41;;;;;;;11.20;5.10;;;;;;;;;;10101836;28;20051;-66
